Aktualne dane pomiarowe

Uwaga, wersja testowa! Automatyczne pobieranie danych za pomocą narzędzi lub skryptów to umożliwiających jest zabronione.

Dane meteo z obszaru Polski uzyskane na podstawie depesz SYNOP pobieranych co godzinę z NWS. Najedź myszką na symbol przedstawiony w tabeli, aby uzyskać informacje co do jego znaczenia. Prosimy pamiętać, że to testowa wersja strony, która jeszcze nie jest ukończona. Stworzono również jest krótki FAQ dotyczący korzystania z tej podstrony Anomalie temperatury w chwili obecnej odniesione są do okresu referencyjnego 1951-2016. Okres ten będzie później zmieniony na 1981-2010. Kliknij ikonę aby pobrać plik CSV. Kliknij ikonę aby wygenerować mapę synoptyczną dla danego terminu.

Wybierz Datę:    

        

Lesko (12690)

Dane terminowe dla wybranej stacji. Kliknij datę, aby otrzymać dane z tego terminu dla wszystkich stacji.

TemperaturaZachmurzenieWiatrCiśnienieOpadyPogoda
 Data t td wb tx tn tg rh  Nt Nl Cl Cm Ch ws wd g1 g2 wx mslp ppp ch 24h 12h t ww ww w1 w2  
2019-07-07 23:00:00 13.0 11.4 11.9--- 9027.0wxwxwxwx3wx--31010.8 961.2 1.6---------
2019-07-07 22:00:00 13.4 11.8 12.3--- 9025.0wxwxwxwx2wx--21010.0 960.5 1.3---------
2019-07-07 21:00:00 14.2 12.2 12.8--- 8830.0wxwxwx1wx--11009.3 959.9 0.9---wx-w1--
2019-07-07 20:00:00 14.9 12.4 13.2--- 8530.0wxwxwxwx1wx--11008.8 959.6 0.9---------
2019-07-07 19:00:00 15.8 13.3 14.1--- 8535.0wxwxwxwx2wx---1008.3 959.2 1.2---wx-w1--
2019-07-07 18:00:00 16.7 15.9 16.1 25.7 15.2- 957.0wxwxwx2wx--21007.9 959.0 1.2- 13.012wx-w1w2--
2019-07-07 17:00:00 16.9 15.9 16.2--- 9416.0wxwxwxwxwx1wx---1007.5 958.7 0.7---------
2019-07-07 16:00:00 17.6 16.5 16.8--- 9328.0wxwxwxwx2wx---1006.7 958.0 1.2---------
2019-07-07 15:00:00 16.9 16.1 16.3--- 9523.0wxwxwx2wx--21006.6 957.8 0.3---wx-w1w2--
2019-07-07 14:00:00 15.6 14.6 14.9--- 9415.0wxwxwx2wx--21007.0 958.0 1.5---wx-w1w2--
2019-07-07 13:00:00 16.0 14.0 14.6--- 8835.0wxwxwx2wx---1005.7 956.8 -0.5---wx-w1w2--
2019-07-07 12:00:00 15.6 13.6 14.2--- 8813.0wxwxwx3wx-1731006.5 957.5 0.0- 8.06wx---
2019-07-07 11:00:00 25.5 14.3 18.4--- 5035.0wxwxwxwx4wx---1003.8 956.5 -0.9---------
2019-07-07 10:00:00 23.9 14.0 17.6--- 5435.0wxwxwxwxwx3wx--31004.9 957.3 -0.1---------
2019-07-07 09:00:00 23.8 14.8 18.0--- 5735.0wxwxwxwxwx2wx--21005.1 957.5 -0.2---------
2019-07-07 08:00:00 22.5 14.9 17.6--- 6235.0wxwxwxwxwx3wx--31005.2 957.4 0.0---------
2019-07-07 07:00:00 22.2 14.6 17.3--- 6235.0wx-wxwx3wx--31005.3 957.4 0.4---------
2019-07-07 06:00:00 21.0 14.2 16.6 23.3 19.5 17 6535.0wx-wxwx2wx-1321005.8 957.7 1.3- 0.012----- 5.7
2019-07-07 05:00:00 21.3 13.0 16.1--- 5935.0wxwxwxwxwx2wx--21005.4 957.4 0.8---------
2019-07-07 04:00:00 21.0 12.4 15.6--- 5835.0wxwxwxwxwx1wx-1011005.1 957.0 -0.4---------
2019-07-07 03:00:00 21.3 11.9 15.5--- 5535.0wxwxwxwxwx6wx-1361004.4 956.4 -1.8---------
2019-07-07 02:00:00 22.5 11.9 16.0--- 5135.0wxwxwxwx4wx-1041004.4 956.6 -2.0---wx---
2019-07-07 01:00:00 21.9 10.4 15.1--- 4835.0wx-wx5wx---1005.3 957.4 -1.2---------
2019-07-07 00:00:00 21.8 10.3 15.0--- 4835.0wx-wx4wx-1041006.2 958.2 -1.1- 0.06------
2019-07-06 23:00:00 21.6 9.8 14.7--- 4735.0wx-5wx101051006.6 958.6 -0.7---------
2019-07-06 22:00:00 19.7 9.6 13.7--- 5235.0wx-2wx--21007.0 958.6 -1.1---------
2019-07-06 21:00:00 21.9 9.4 14.6--- 4535.0wx-wx4wx--41007.3 959.3 -0.3---------
2019-07-06 20:00:00 21.8 9.7 14.7--- 4635.0wxwxwxwx4wx--41007.3 959.3 -0.6---------
2019-07-06 19:00:00 22.6 10.1 15.2--- 4535.0wxwxwxwx4wx--41007.6 959.7 -0.5---------
2019-07-06 18:00:00 23.2 10.6 15.7 25.2 15.5- 4535.0wxwxwxwx3wx-1031007.4 959.6 -0.9- 0.012------
2019-07-06 17:00:00 24.2 10.8 16.2--- 4335.0wxwxwxwx3wx--31007.6 959.9 -1.4---------
2019-07-06 16:00:00 24.5 10.7 16.3--- 4235.0wxwxwxwx4wx-841007.8 960.2 -1.7---------
2019-07-06 15:00:00 24.7 10.6 16.3--- 4135.0wxwxwxwx5wx-1051008.1 960.5 -1.8---------
2019-07-06 14:00:00 24.2 11.2 16.4--- 4435.0wxwxwxwx5wx-951009.0 961.3 -1.6---------
2019-07-06 13:00:00 23.0 11.4 16.0--- 4835.0wxwxwx3wx-1031009.9 961.9 -1.4---------
2019-07-06 12:00:00 21.9 10.7 15.2--- 4922.0wxwxwx5wx--51010.5 962.3 -1.5- 0.06------
2019-07-06 11:00:00 20.9 11.5 15.1--- 5535.0wxwxwx3wx--31011.3 962.9 -1.3---------
2019-07-06 10:00:00 20.2 9.4 13.9--- 5035.0wxwxwx4wx--41011.8 963.3 -0.8---------
2019-07-06 09:00:00 20.3 11.5 14.9--- 5735.0wxwxwxwxwx3wx--31012.3 963.8 -0.4---------
2019-07-06 08:00:00 18.3 10.6 13.6--- 6135.0wxwxwxwx4wx--41013.1 964.2 -0.3---------
2019-07-06 07:00:00 17.7 10.6 13.3--- 6335.0wxwxwxwx2wx--21013.1 964.1 -0.3---------
2019-07-06 06:00:00 15.5 11.7 13.0 17.1 11.8 12 7835.0wxwxwx1wx--11013.6 964.2 0.1 4.0-12wx-- 7.1
2019-07-06 05:00:00 13.7 11.7 12.3--- 8829.0wxwxwx0---01014.2 964.5 0.2---wx---
2019-07-06 04:00:00 13.2 11.4 11.9--- 8935.0wxwxwxwx1wx--11014.2 964.4 0.0---wx---
2019-07-06 03:00:00 11.9 11.0 11.2--- 9426.0wxwxwxwx1wx--11014.1 964.1 -0.6---wx---
2019-07-06 02:00:00 12.3 10.7 11.2--- 9035.0wxwxwxwx1wx--11014.2 964.3 -0.3---------
2019-07-06 01:00:00 13.1 11.0 11.7--- 8735.0wxwxwx0---01014.2 964.4 -0.1---------
2019-07-06 00:00:00 13.0 11.1 11.7--- 8835.0wxwxwx1wx--11014.5 964.7 0.3- 0.06------
1.5 ms

 

Print Friendly, PDF & Email